Current Weather

Columbia Gorge Rgnl/the Dalles Muni

The Dalles, Washington (KDLS)

Report from: Sunday, January 29, 2023 6:53 AM PST
Current time: Sunday, January 29, 2023 7:34 AM PST

Nearby weather
Weather history
Weather forecast

Temperature-6.7°C (19.9°F)
Wind chill-11.0°C (12.1°F)
Dew point-11.1°C (12.0°F)
Winds 5 kts (2.6 m/s, 5.8 mph) West-Southwest (240°)
Visibility10 mi. (16.1 km)
Clouds Sky clear
Altimeter30.51 in.Hg (1033 mB)
Relative humidity71 %
Density altitude-3,328 ft. (-1,014 m)
Sea-level pressure103.3 kPa (1033 mB, 30.52 in.Hg)
Remarks Fully automated report
Automated weather observing station with precipitation discriminator
Pressure rising more slowly
Flight conditions Visual Meteorological Conditions
Raw dataKDLS 291453Z AUTO 24005KT 10SM CLR M07/M11 A3051 RMK AO2 SLP334 T10671111 51023
An error has occurred. This application may no longer respond until reloaded. Reload 🗙